Terminal Aerodrome Forecast
Issued by NWS

Home | Current Version | Previous Version | Text Only | Print | Product List | Glossary On
Versions: 1 2 3 4 5 6 7 8 9 10 11 12 13
023
FTUS44 KJAN 242320
TAFHKS
TAF
KHKS 242320Z 2500/2524 17013G26KT P6SM SCT050 BKN070 OVC090
     FM250600 16014G28KT P6SM VCSH BKN015 OVC025
     FM250900 16014G27KT P6SM SHRA VCTS BKN015CB BKN250
     FM251300 18013G24KT P6SM TSRA BKN025CB BKN050
     FM251700 19013G24KT P6SM SHRA VCTS BKN025CB BKN250=

USA.gov is the U.S. government's official web portal to all federal, state and local government web resources and services.